sensor_id;sensor_type;location;lat;lon;timestamp;P1;durP1;ratioP1;P2;durP2;ratioP2
75647;SDS011;64238;51.466;7.260;2022-11-20T00:00:47;9.43;;;6.15;;
75647;SDS011;64238;51.466;7.260;2022-11-20T00:03:12;10.32;;;6.13;;
75647;SDS011;64238;51.466;7.260;2022-11-20T00:05:38;11.30;;;6.22;;
75647;SDS011;64238;51.466;7.260;2022-11-20T00:08:04;11.60;;;6.65;;
75647;SDS011;64238;51.466;7.260;2022-11-20T00:10:30;11.70;;;6.40;;
75647;SDS011;64238;51.466;7.260;2022-11-20T00:12:57;10.68;;;6.05;;
75647;SDS011;64238;51.466;7.260;2022-11-20T00:15:23;10.55;;;6.55;;
75647;SDS011;64238;51.466;7.260;2022-11-20T00:17:49;10.13;;;6.43;;
75647;SDS011;64238;51.466;7.260;2022-11-20T00:20:15;11.82;;;6.57;;
75647;SDS011;64238;51.466;7.260;2022-11-20T00:22:40;12.90;;;6.90;;
75647;SDS011;64238;51.466;7.260;2022-11-20T00:25:06;11.38;;;6.90;;
75647;SDS011;64238;51.466;7.260;2022-11-20T00:27:32;12.50;;;6.97;;
75647;SDS011;64238;51.466;7.260;2022-11-20T00:29:57;12.25;;;6.88;;
75647;SDS011;64238;51.466;7.260;2022-11-20T00:32:23;11.55;;;6.70;;
75647;SDS011;64238;51.466;7.260;2022-11-20T00:34:48;10.60;;;6.88;;
75647;SDS011;64238;51.466;7.260;2022-11-20T00:37:14;11.75;;;6.93;;
75647;SDS011;64238;51.466;7.260;2022-11-20T00:39:39;11.55;;;6.70;;
75647;SDS011;64238;51.466;7.260;2022-11-20T00:42:05;11.20;;;6.63;;
75647;SDS011;64238;51.466;7.260;2022-11-20T00:44:30;11.68;;;6.50;;
75647;SDS011;64238;51.466;7.260;2022-11-20T00:46:56;11.70;;;6.45;;
75647;SDS011;64238;51.466;7.260;2022-11-20T00:49:21;11.95;;;6.93;;
75647;SDS011;64238;51.466;7.260;2022-11-20T00:51:47;11.05;;;6.50;;
75647;SDS011;64238;51.466;7.260;2022-11-20T00:54:13;12.05;;;6.72;;
75647;SDS011;64238;51.466;7.260;2022-11-20T00:56:38;12.38;;;7.32;;
75647;SDS011;64238;51.466;7.260;2022-11-20T00:59:04;11.15;;;6.72;;
75647;SDS011;64238;51.466;7.260;2022-11-20T01:01:30;11.88;;;7.05;;
75647;SDS011;64238;51.466;7.260;2022-11-20T01:03:57;12.27;;;6.72;;
75647;SDS011;64238;51.466;7.260;2022-11-20T01:06:26;9.73;;;7.15;;
75647;SDS011;64238;51.466;7.260;2022-11-20T01:08:54;11.55;;;6.63;;
75647;SDS011;64238;51.466;7.260;2022-11-20T01:11:22;12.55;;;6.93;;
75647;SDS011;64238;51.466;7.260;2022-11-20T01:13:50;11.60;;;7.20;;
75647;SDS011;64238;51.466;7.260;2022-11-20T01:16:23;11.02;;;6.65;;
75647;SDS011;64238;51.466;7.260;2022-11-20T01:18:55;10.93;;;7.03;;
75647;SDS011;64238;51.466;7.260;2022-11-20T01:21:24;11.05;;;6.93;;
75647;SDS011;64238;51.466;7.260;2022-11-20T01:23:51;13.15;;;8.02;;
75647;SDS011;64238;51.466;7.260;2022-11-20T01:26:18;11.70;;;7.10;;
75647;SDS011;64238;51.466;7.260;2022-11-20T01:28:46;11.13;;;7.40;;
75647;SDS011;64238;51.466;7.260;2022-11-20T01:33:42;12.52;;;7.78;;
75647;SDS011;64238;51.466;7.260;2022-11-20T01:36:09;12.43;;;7.00;;
75647;SDS011;64238;51.466;7.260;2022-11-20T01:38:35;11.73;;;7.22;;
75647;SDS011;64238;51.466;7.260;2022-11-20T01:41:01;11.68;;;7.15;;
75647;SDS011;64238;51.466;7.260;2022-11-20T01:43:27;12.57;;;7.65;;
75647;SDS011;64238;51.466;7.260;2022-11-20T01:48:36;12.50;;;7.70;;
75647;SDS011;64238;51.466;7.260;2022-11-20T01:51:12;11.55;;;7.40;;
75647;SDS011;64238;51.466;7.260;2022-11-20T01:53:41;12.60;;;7.00;;
75647;SDS011;64238;51.466;7.260;2022-11-20T01:56:08;12.15;;;7.30;;
75647;SDS011;64238;51.466;7.260;2022-11-20T01:58:37;12.50;;;7.50;;
75647;SDS011;64238;51.466;7.260;2022-11-20T02:01:09;10.98;;;7.28;;
75647;SDS011;64238;51.466;7.260;2022-11-20T02:03:35;14.02;;;8.02;;
75647;SDS011;64238;51.466;7.260;2022-11-20T02:08:39;12.13;;;7.57;;
75647;SDS011;64238;51.466;7.260;2022-11-20T02:11:04;13.82;;;7.97;;
75647;SDS011;64238;51.466;7.260;2022-11-20T02:13:31;11.15;;;7.35;;
75647;SDS011;64238;51.466;7.260;2022-11-20T02:16:13;11.05;;;7.60;;
75647;SDS011;64238;51.466;7.260;2022-11-20T02:18:39;11.63;;;7.45;;
75647;SDS011;64238;51.466;7.260;2022-11-20T02:21:07;13.30;;;7.47;;
75647;SDS011;64238;51.466;7.260;2022-11-20T02:23:51;14.82;;;7.28;;
75647;SDS011;64238;51.466;7.260;2022-11-20T02:26:26;12.88;;;7.82;;
75647;SDS011;64238;51.466;7.260;2022-11-20T02:28:55;12.82;;;8.00;;
75647;SDS011;64238;51.466;7.260;2022-11-20T02:31:21;12.32;;;7.78;;
75647;SDS011;64238;51.466;7.260;2022-11-20T02:33:47;12.52;;;7.65;;
75647;SDS011;64238;51.466;7.260;2022-11-20T02:36:14;12.60;;;7.53;;
75647;SDS011;64238;51.466;7.260;2022-11-20T02:38:41;13.20;;;7.75;;
75647;SDS011;64238;51.466;7.260;2022-11-20T02:41:08;13.20;;;8.02;;
75647;SDS011;64238;51.466;7.260;2022-11-20T02:43:33;12.25;;;7.80;;
75647;SDS011;64238;51.466;7.260;2022-11-20T02:45:59;11.90;;;7.28;;
75647;SDS011;64238;51.466;7.260;2022-11-20T02:48:24;13.35;;;7.80;;
75647;SDS011;64238;51.466;7.260;2022-11-20T02:50:50;11.45;;;7.35;;
75647;SDS011;64238;51.466;7.260;2022-11-20T02:53:15;13.02;;;7.57;;
75647;SDS011;64238;51.466;7.260;2022-11-20T02:55:41;13.30;;;7.38;;
75647;SDS011;64238;51.466;7.260;2022-11-20T02:58:06;11.82;;;7.55;;
75647;SDS011;64238;51.466;7.260;2022-11-20T03:00:32;13.20;;;7.95;;
75647;SDS011;64238;51.466;7.260;2022-11-20T03:02:58;12.52;;;7.70;;
75647;SDS011;64238;51.466;7.260;2022-11-20T03:05:24;11.15;;;7.25;;
75647;SDS011;64238;51.466;7.260;2022-11-20T03:07:49;12.50;;;7.60;;
75647;SDS011;64238;51.466;7.260;2022-11-20T03:10:15;12.57;;;8.35;;
75647;SDS011;64238;51.466;7.260;2022-11-20T03:12:40;11.80;;;7.20;;
75647;SDS011;64238;51.466;7.260;2022-11-20T03:15:06;11.80;;;7.85;;
75647;SDS011;64238;51.466;7.260;2022-11-20T03:17:32;13.15;;;7.13;;
75647;SDS011;64238;51.466;7.260;2022-11-20T03:19:57;12.82;;;7.80;;
75647;SDS011;64238;51.466;7.260;2022-11-20T03:22:23;12.10;;;7.55;;
75647;SDS011;64238;51.466;7.260;2022-11-20T03:24:48;13.45;;;7.40;;
75647;SDS011;64238;51.466;7.260;2022-11-20T03:27:14;13.02;;;7.65;;
75647;SDS011;64238;51.466;7.260;2022-11-20T03:29:39;12.40;;;7.80;;
75647;SDS011;64238;51.466;7.260;2022-11-20T03:32:05;12.20;;;7.10;;
75647;SDS011;64238;51.466;7.260;2022-11-20T03:34:30;10.82;;;7.28;;
75647;SDS011;64238;51.466;7.260;2022-11-20T03:36:56;12.40;;;7.88;;
75647;SDS011;64238;51.466;7.260;2022-11-20T03:39:21;11.55;;;7.25;;
75647;SDS011;64238;51.466;7.260;2022-11-20T03:41:47;12.55;;;8.02;;
75647;SDS011;64238;51.466;7.260;2022-11-20T03:44:13;11.98;;;7.70;;
75647;SDS011;64238;51.466;7.260;2022-11-20T03:46:38;13.35;;;7.05;;
75647;SDS011;64238;51.466;7.260;2022-11-20T03:49:04;12.07;;;7.88;;
75647;SDS011;64238;51.466;7.260;2022-11-20T03:51:31;12.02;;;7.97;;
75647;SDS011;64238;51.466;7.260;2022-11-20T03:53:58;13.02;;;7.88;;
75647;SDS011;64238;51.466;7.260;2022-11-20T03:56:27;11.07;;;7.68;;
75647;SDS011;64238;51.466;7.260;2022-11-20T03:58:54;10.70;;;7.07;;
75647;SDS011;64238;51.466;7.260;2022-11-20T04:01:22;11.38;;;7.45;;
75647;SDS011;64238;51.466;7.260;2022-11-20T04:03:51;12.40;;;7.07;;
75647;SDS011;64238;51.466;7.260;2022-11-20T04:06:18;12.32;;;7.40;;
75647;SDS011;64238;51.466;7.260;2022-11-20T04:08:45;12.50;;;7.30;;
75647;SDS011;64238;51.466;7.260;2022-11-20T04:11:15;11.70;;;7.72;;
75647;SDS011;64238;51.466;7.260;2022-11-20T04:13:49;10.68;;;7.10;;
75647;SDS011;64238;51.466;7.260;2022-11-20T04:16:17;12.02;;;7.50;;
75647;SDS011;64238;51.466;7.260;2022-11-20T04:18:43;10.60;;;7.20;;
75647;SDS011;64238;51.466;7.260;2022-11-20T04:21:09;10.02;;;6.95;;
75647;SDS011;64238;51.466;7.260;2022-11-20T04:23:35;12.00;;;6.72;;
75647;SDS011;64238;51.466;7.260;2022-11-20T04:26:02;11.13;;;6.97;;
75647;SDS011;64238;51.466;7.260;2022-11-20T04:28:35;11.98;;;7.47;;
75647;SDS011;64238;51.466;7.260;2022-11-20T04:31:05;10.90;;;7.38;;
75647;SDS011;64238;51.466;7.260;2022-11-20T04:33:36;12.13;;;7.60;;
75647;SDS011;64238;51.466;7.260;2022-11-20T04:36:23;11.38;;;7.20;;
75647;SDS011;64238;51.466;7.260;2022-11-20T04:38:50;11.38;;;7.10;;
75647;SDS011;64238;51.466;7.260;2022-11-20T04:41:20;12.40;;;7.10;;
75647;SDS011;64238;51.466;7.260;2022-11-20T04:43:48;10.77;;;6.78;;
75647;SDS011;64238;51.466;7.260;2022-11-20T04:46:15;12.95;;;7.03;;
75647;SDS011;64238;51.466;7.260;2022-11-20T04:48:42;11.07;;;6.97;;
75647;SDS011;64238;51.466;7.260;2022-11-20T04:51:07;12.55;;;6.95;;
75647;SDS011;64238;51.466;7.260;2022-11-20T04:53:33;10.65;;;7.07;;
75647;SDS011;64238;51.466;7.260;2022-11-20T04:56:02;12.93;;;6.78;;
75647;SDS011;64238;51.466;7.260;2022-11-20T04:58:29;10.60;;;7.18;;
75647;SDS011;64238;51.466;7.260;2022-11-20T05:01:05;12.18;;;7.40;;
75647;SDS011;64238;51.466;7.260;2022-11-20T05:03:32;12.73;;;8.13;;
75647;SDS011;64238;51.466;7.260;2022-11-20T05:06:01;9.98;;;6.72;;
75647;SDS011;64238;51.466;7.260;2022-11-20T05:08:28;11.82;;;6.72;;
75647;SDS011;64238;51.466;7.260;2022-11-20T05:10:58;10.82;;;7.00;;
75647;SDS011;64238;51.466;7.260;2022-11-20T05:13:28;11.38;;;6.82;;
75647;SDS011;64238;51.466;7.260;2022-11-20T05:15:54;10.77;;;7.47;;
75647;SDS011;64238;51.466;7.260;2022-11-20T05:18:19;10.60;;;6.93;;
75647;SDS011;64238;51.466;7.260;2022-11-20T05:20:45;11.60;;;7.18;;
75647;SDS011;64238;51.466;7.260;2022-11-20T05:23:10;11.65;;;7.03;;
75647;SDS011;64238;51.466;7.260;2022-11-20T05:25:36;11.45;;;7.05;;
75647;SDS011;64238;51.466;7.260;2022-11-20T05:28:01;11.50;;;7.35;;
75647;SDS011;64238;51.466;7.260;2022-11-20T05:30:27;11.85;;;7.63;;
75647;SDS011;64238;51.466;7.260;2022-11-20T05:32:52;10.15;;;7.03;;
75647;SDS011;64238;51.466;7.260;2022-11-20T05:35:18;10.77;;;7.05;;
75647;SDS011;64238;51.466;7.260;2022-11-20T05:37:44;11.70;;;7.00;;
75647;SDS011;64238;51.466;7.260;2022-11-20T05:40:09;10.75;;;7.00;;
75647;SDS011;64238;51.466;7.260;2022-11-20T05:42:35;10.45;;;6.65;;
75647;SDS011;64238;51.466;7.260;2022-11-20T05:45:02;10.13;;;6.60;;
75647;SDS011;64238;51.466;7.260;2022-11-20T05:47:33;11.60;;;6.45;;
75647;SDS011;64238;51.466;7.260;2022-11-20T05:49:59;10.98;;;7.10;;
75647;SDS011;64238;51.466;7.260;2022-11-20T05:52:28;11.98;;;7.15;;
75647;SDS011;64238;51.466;7.260;2022-11-20T05:54:54;11.43;;;7.18;;
75647;SDS011;64238;51.466;7.260;2022-11-20T05:57:19;11.43;;;7.03;;
75647;SDS011;64238;51.466;7.260;2022-11-20T05:59:45;11.35;;;7.07;;
75647;SDS011;64238;51.466;7.260;2022-11-20T06:02:10;11.32;;;7.13;;
75647;SDS011;64238;51.466;7.260;2022-11-20T06:04:36;10.90;;;6.93;;
75647;SDS011;64238;51.466;7.260;2022-11-20T06:07:01;9.70;;;6.65;;
75647;SDS011;64238;51.466;7.260;2022-11-20T06:09:27;10.38;;;7.28;;
75647;SDS011;64238;51.466;7.260;2022-11-20T06:11:53;10.38;;;6.50;;
75647;SDS011;64238;51.466;7.260;2022-11-20T06:14:18;11.50;;;7.45;;
75647;SDS011;64238;51.466;7.260;2022-11-20T06:16:44;12.00;;;6.60;;
75647;SDS011;64238;51.466;7.260;2022-11-20T06:19:09;11.48;;;6.50;;
75647;SDS011;64238;51.466;7.260;2022-11-20T06:21:35;11.27;;;7.00;;
75647;SDS011;64238;51.466;7.260;2022-11-20T06:24:00;9.25;;;6.40;;
75647;SDS011;64238;51.466;7.260;2022-11-20T06:26:26;10.70;;;7.30;;
75647;SDS011;64238;51.466;7.260;2022-11-20T06:28:53;10.27;;;6.95;;
75647;SDS011;64238;51.466;7.260;2022-11-20T06:31:20;10.70;;;7.28;;
75647;SDS011;64238;51.466;7.260;2022-11-20T06:33:47;11.45;;;6.82;;
75647;SDS011;64238;51.466;7.260;2022-11-20T06:36:14;11.00;;;6.47;;
75647;SDS011;64238;51.466;7.260;2022-11-20T06:38:40;10.82;;;7.18;;
75647;SDS011;64238;51.466;7.260;2022-11-20T06:41:07;10.60;;;6.88;;
75647;SDS011;64238;51.466;7.260;2022-11-20T06:43:35;10.63;;;6.60;;
75647;SDS011;64238;51.466;7.260;2022-11-20T06:46:01;11.68;;;6.75;;
75647;SDS011;64238;51.466;7.260;2022-11-20T06:48:27;11.95;;;7.60;;
75647;SDS011;64238;51.466;7.260;2022-11-20T06:50:53;10.70;;;6.43;;
75647;SDS011;64238;51.466;7.260;2022-11-20T06:53:19;11.65;;;7.10;;
75647;SDS011;64238;51.466;7.260;2022-11-20T06:55:45;9.48;;;6.55;;
75647;SDS011;64238;51.466;7.260;2022-11-20T06:58:12;9.82;;;6.47;;
75647;SDS011;64238;51.466;7.260;2022-11-20T07:00:38;10.07;;;6.47;;
75647;SDS011;64238;51.466;7.260;2022-11-20T07:03:05;11.27;;;6.55;;
75647;SDS011;64238;51.466;7.260;2022-11-20T07:05:32;10.88;;;6.88;;
75647;SDS011;64238;51.466;7.260;2022-11-20T07:07:58;11.18;;;6.57;;
75647;SDS011;64238;51.466;7.260;2022-11-20T07:10:23;10.93;;;6.97;;
75647;SDS011;64238;51.466;7.260;2022-11-20T07:12:50;11.07;;;6.90;;
75647;SDS011;64238;51.466;7.260;2022-11-20T07:15:20;10.90;;;7.18;;
75647;SDS011;64238;51.466;7.260;2022-11-20T07:17:46;10.20;;;6.50;;
75647;SDS011;64238;51.466;7.260;2022-11-20T07:20:12;10.38;;;6.72;;
75647;SDS011;64238;51.466;7.260;2022-11-20T07:22:38;10.15;;;6.53;;
75647;SDS011;64238;51.466;7.260;2022-11-20T07:25:04;11.00;;;6.88;;
75647;SDS011;64238;51.466;7.260;2022-11-20T07:27:30;10.73;;;7.30;;
75647;SDS011;64238;51.466;7.260;2022-11-20T07:29:55;11.23;;;6.80;;
75647;SDS011;64238;51.466;7.260;2022-11-20T07:32:21;10.27;;;7.00;;
75647;SDS011;64238;51.466;7.260;2022-11-20T07:34:47;10.75;;;6.50;;
75647;SDS011;64238;51.466;7.260;2022-11-20T07:37:13;10.90;;;6.93;;
75647;SDS011;64238;51.466;7.260;2022-11-20T07:39:40;9.73;;;6.40;;
75647;SDS011;64238;51.466;7.260;2022-11-20T07:42:05;10.95;;;6.60;;
75647;SDS011;64238;51.466;7.260;2022-11-20T07:44:31;12.13;;;7.13;;
75647;SDS011;64238;51.466;7.260;2022-11-20T07:46:57;11.55;;;6.78;;
75647;SDS011;64238;51.466;7.260;2022-11-20T07:49:23;10.77;;;6.85;;
75647;SDS011;64238;51.466;7.260;2022-11-20T07:51:52;10.35;;;6.70;;
75647;SDS011;64238;51.466;7.260;2022-11-20T07:54:18;10.73;;;7.05;;
75647;SDS011;64238;51.466;7.260;2022-11-20T07:56:45;9.70;;;6.90;;
75647;SDS011;64238;51.466;7.260;2022-11-20T07:59:10;10.98;;;6.78;;
75647;SDS011;64238;51.466;7.260;2022-11-20T08:01:37;10.45;;;6.72;;
75647;SDS011;64238;51.466;7.260;2022-11-20T08:04:05;9.35;;;6.38;;
75647;SDS011;64238;51.466;7.260;2022-11-20T08:06:31;10.45;;;6.55;;
75647;SDS011;64238;51.466;7.260;2022-11-20T08:08:57;10.63;;;7.13;;
75647;SDS011;64238;51.466;7.260;2022-11-20T08:11:22;10.88;;;6.90;;
75647;SDS011;64238;51.466;7.260;2022-11-20T08:14:06;11.23;;;7.05;;
75647;SDS011;64238;51.466;7.260;2022-11-20T08:16:42;10.45;;;6.53;;
75647;SDS011;64238;51.466;7.260;2022-11-20T08:19:09;10.73;;;6.72;;
75647;SDS011;64238;51.466;7.260;2022-11-20T08:21:35;10.73;;;7.15;;
75647;SDS011;64238;51.466;7.260;2022-11-20T08:24:01;10.63;;;6.75;;
75647;SDS011;64238;51.466;7.260;2022-11-20T08:26:27;11.25;;;6.50;;
75647;SDS011;64238;51.466;7.260;2022-11-20T08:28:53;10.40;;;6.00;;
75647;SDS011;64238;51.466;7.260;2022-11-20T08:31:19;9.88;;;6.53;;
75647;SDS011;64238;51.466;7.260;2022-11-20T08:33:45;11.98;;;6.97;;
75647;SDS011;64238;51.466;7.260;2022-11-20T08:36:11;10.35;;;6.68;;
75647;SDS011;64238;51.466;7.260;2022-11-20T08:38:37;10.75;;;7.18;;
75647;SDS011;64238;51.466;7.260;2022-11-20T08:41:03;11.10;;;7.10;;
75647;SDS011;64238;51.466;7.260;2022-11-20T08:43:47;12.35;;;7.45;;
75647;SDS011;64238;51.466;7.260;2022-11-20T08:46:13;10.07;;;6.82;;
75647;SDS011;64238;51.466;7.260;2022-11-20T08:48:39;12.07;;;6.97;;
75647;SDS011;64238;51.466;7.260;2022-11-20T08:51:04;11.98;;;7.35;;
75647;SDS011;64238;51.466;7.260;2022-11-20T08:53:30;10.68;;;6.65;;
75647;SDS011;64238;51.466;7.260;2022-11-20T08:55:58;9.48;;;6.50;;
75647;SDS011;64238;51.466;7.260;2022-11-20T08:58:24;10.45;;;6.43;;
75647;SDS011;64238;51.466;7.260;2022-11-20T09:00:50;10.27;;;6.57;;
75647;SDS011;64238;51.466;7.260;2022-11-20T09:03:15;9.93;;;6.63;;
75647;SDS011;64238;51.466;7.260;2022-11-20T09:05:41;9.25;;;6.13;;
75647;SDS011;64238;51.466;7.260;2022-11-20T09:08:07;11.27;;;6.75;;
75647;SDS011;64238;51.466;7.260;2022-11-20T09:10:33;10.68;;;6.85;;
75647;SDS011;64238;51.466;7.260;2022-11-20T09:12:59;10.27;;;6.35;;
75647;SDS011;64238;51.466;7.260;2022-11-20T09:15:25;9.85;;;6.25;;
75647;SDS011;64238;51.466;7.260;2022-11-20T09:17:51;9.55;;;6.30;;
75647;SDS011;64238;51.466;7.260;2022-11-20T09:20:17;9.82;;;6.53;;
75647;SDS011;64238;51.466;7.260;2022-11-20T09:22:42;11.45;;;6.32;;
75647;SDS011;64238;51.466;7.260;2022-11-20T09:25:08;12.70;;;6.88;;
75647;SDS011;64238;51.466;7.260;2022-11-20T09:27:33;11.05;;;6.78;;
75647;SDS011;64238;51.466;7.260;2022-11-20T09:30:00;11.30;;;6.63;;
75647;SDS011;64238;51.466;7.260;2022-11-20T09:32:26;10.98;;;6.65;;
75647;SDS011;64238;51.466;7.260;2022-11-20T09:34:51;9.18;;;6.05;;
75647;SDS011;64238;51.466;7.260;2022-11-20T09:37:17;10.07;;;6.50;;
75647;SDS011;64238;51.466;7.260;2022-11-20T09:39:42;10.13;;;6.50;;
75647;SDS011;64238;51.466;7.260;2022-11-20T09:44:51;10.05;;;6.57;;
75647;SDS011;64238;51.466;7.260;2022-11-20T09:47:44;11.45;;;6.85;;
75647;SDS011;64238;51.466;7.260;2022-11-20T09:53:19;10.05;;;6.40;;
75647;SDS011;64238;51.466;7.260;2022-11-20T09:55:48;10.10;;;6.78;;
75647;SDS011;64238;51.466;7.260;2022-11-20T09:58:16;9.77;;;6.40;;
75647;SDS011;64238;51.466;7.260;2022-11-20T10:01:00;10.35;;;6.57;;
75647;SDS011;64238;51.466;7.260;2022-11-20T10:03:37;9.18;;;6.22;;
75647;SDS011;64238;51.466;7.260;2022-11-20T10:06:10;9.80;;;6.68;;
75647;SDS011;64238;51.466;7.260;2022-11-20T10:08:41;9.02;;;6.50;;
75647;SDS011;64238;51.466;7.260;2022-11-20T10:11:33;9.88;;;6.60;;
75647;SDS011;64238;51.466;7.260;2022-11-20T10:30:01;9.27;;;6.63;;
75647;SDS011;64238;51.466;7.260;2022-11-20T10:32:36;10.25;;;6.32;;
75647;SDS011;64238;51.466;7.260;2022-11-20T10:38:00;9.15;;;6.43;;
75647;SDS011;64238;51.466;7.260;2022-11-20T10:40:34;10.05;;;6.05;;
75647;SDS011;64238;51.466;7.260;2022-11-20T10:43:10;10.68;;;6.43;;
75647;SDS011;64238;51.466;7.260;2022-11-20T10:45:43;10.20;;;6.60;;
75647;SDS011;64238;51.466;7.260;2022-11-20T10:50:46;9.70;;;6.07;;
75647;SDS011;64238;51.466;7.260;2022-11-20T10:56:07;9.73;;;6.13;;
75647;SDS011;64238;51.466;7.260;2022-11-20T10:58:54;10.10;;;6.53;;
75647;SDS011;64238;51.466;7.260;2022-11-20T11:01:40;10.32;;;6.47;;
75647;SDS011;64238;51.466;7.260;2022-11-20T11:04:13;9.88;;;6.30;;
75647;SDS011;64238;51.466;7.260;2022-11-20T11:06:54;10.18;;;6.28;;
75647;SDS011;64238;51.466;7.260;2022-11-20T11:09:36;8.80;;;5.85;;
75647;SDS011;64238;51.466;7.260;2022-11-20T11:12:07;10.32;;;6.40;;
75647;SDS011;64238;51.466;7.260;2022-11-20T11:14:48;9.35;;;6.30;;
75647;SDS011;64238;51.466;7.260;2022-11-20T11:17:19;10.68;;;6.57;;
75647;SDS011;64238;51.466;7.260;2022-11-20T11:19:45;9.88;;;6.45;;
75647;SDS011;64238;51.466;7.260;2022-11-20T11:22:21;9.90;;;6.03;;
75647;SDS011;64238;51.466;7.260;2022-11-20T11:24:53;9.13;;;5.60;;
75647;SDS011;64238;51.466;7.260;2022-11-20T11:27:19;8.98;;;5.82;;
75647;SDS011;64238;51.466;7.260;2022-11-20T11:29:45;9.85;;;6.13;;
75647;SDS011;64238;51.466;7.260;2022-11-20T11:34:38;9.45;;;5.72;;
75647;SDS011;64238;51.466;7.260;2022-11-20T11:37:03;9.85;;;6.00;;
75647;SDS011;64238;51.466;7.260;2022-11-20T11:39:31;8.32;;;6.03;;
75647;SDS011;64238;51.466;7.260;2022-11-20T11:41:58;10.40;;;6.22;;
75647;SDS011;64238;51.466;7.260;2022-11-20T11:44:30;9.82;;;6.13;;
75647;SDS011;64238;51.466;7.260;2022-11-20T11:47:21;11.02;;;6.55;;
75647;SDS011;64238;51.466;7.260;2022-11-20T11:50:00;10.73;;;6.28;;
75647;SDS011;64238;51.466;7.260;2022-11-20T11:52:51;9.43;;;5.88;;
75647;SDS011;64238;51.466;7.260;2022-11-20T11:55:51;9.82;;;5.70;;
75647;SDS011;64238;51.466;7.260;2022-11-20T11:58:32;9.63;;;5.95;;
75647;SDS011;64238;51.466;7.260;2022-11-20T12:01:07;9.48;;;6.07;;
75647;SDS011;64238;51.466;7.260;2022-11-20T12:06:38;9.48;;;5.88;;
75647;SDS011;64238;51.466;7.260;2022-11-20T12:09:10;9.63;;;6.20;;
75647;SDS011;64238;51.466;7.260;2022-11-20T12:11:38;10.30;;;5.72;;
75647;SDS011;64238;51.466;7.260;2022-11-20T12:14:14;9.57;;;5.78;;
75647;SDS011;64238;51.466;7.260;2022-11-20T12:16:48;9.43;;;5.93;;
75647;SDS011;64238;51.466;7.260;2022-11-20T12:19:15;9.05;;;5.90;;
75647;SDS011;64238;51.466;7.260;2022-11-20T12:35:11;8.88;;;5.40;;
75647;SDS011;64238;51.466;7.260;2022-11-20T12:48:35;8.73;;;5.30;;
75647;SDS011;64238;51.466;7.260;2022-11-20T12:54:24;8.50;;;5.35;;
75647;SDS011;64238;51.466;7.260;2022-11-20T12:57:15;7.82;;;4.90;;
75647;SDS011;64238;51.466;7.260;2022-11-20T13:00:15;8.88;;;5.30;;
75647;SDS011;64238;51.466;7.260;2022-11-20T13:05:37;8.43;;;4.80;;
75647;SDS011;64238;51.466;7.260;2022-11-20T13:08:29;8.93;;;5.13;;
75647;SDS011;64238;51.466;7.260;2022-11-20T13:16:31;8.00;;;4.55;;
75647;SDS011;64238;51.466;7.260;2022-11-20T13:19:04;9.43;;;5.43;;
75647;SDS011;64238;51.466;7.260;2022-11-20T13:21:36;7.97;;;4.70;;
75647;SDS011;64238;51.466;7.260;2022-11-20T13:24:05;7.63;;;4.80;;
75647;SDS011;64238;51.466;7.260;2022-11-20T13:29:43;9.82;;;5.15;;
75647;SDS011;64238;51.466;7.260;2022-11-20T13:34:38;7.57;;;4.50;;
75647;SDS011;64238;51.466;7.260;2022-11-20T13:37:05;8.38;;;4.68;;
75647;SDS011;64238;51.466;7.260;2022-11-20T13:39:32;9.25;;;5.00;;
75647;SDS011;64238;51.466;7.260;2022-11-20T13:42:00;8.63;;;4.85;;
75647;SDS011;64238;51.466;7.260;2022-11-20T13:44:39;7.63;;;4.63;;
75647;SDS011;64238;51.466;7.260;2022-11-20T13:47:20;8.27;;;4.57;;
75647;SDS011;64238;51.466;7.260;2022-11-20T13:49:46;9.48;;;5.07;;
75647;SDS011;64238;51.466;7.260;2022-11-20T13:55:10;7.90;;;4.78;;
75647;SDS011;64238;51.466;7.260;2022-11-20T13:57:55;7.50;;;4.57;;
75647;SDS011;64238;51.466;7.260;2022-11-20T14:00:29;8.27;;;4.93;;
75647;SDS011;64238;51.466;7.260;2022-11-20T14:05:35;7.65;;;4.32;;
75647;SDS011;64238;51.466;7.260;2022-11-20T14:08:04;8.45;;;4.45;;
75647;SDS011;64238;51.466;7.260;2022-11-20T14:10:31;7.80;;;4.43;;
75647;SDS011;64238;51.466;7.260;2022-11-20T14:12:57;7.75;;;4.65;;
75647;SDS011;64238;51.466;7.260;2022-11-20T14:15:30;8.27;;;4.63;;
75647;SDS011;64238;51.466;7.260;2022-11-20T14:17:58;7.78;;;4.47;;
75647;SDS011;64238;51.466;7.260;2022-11-20T14:20:26;7.78;;;4.53;;
75647;SDS011;64238;51.466;7.260;2022-11-20T14:22:55;7.15;;;4.32;;
75647;SDS011;64238;51.466;7.260;2022-11-20T14:27:50;8.38;;;4.53;;
75647;SDS011;64238;51.466;7.260;2022-11-20T14:30:22;7.45;;;4.15;;
75647;SDS011;64238;51.466;7.260;2022-11-20T14:32:49;7.78;;;4.28;;
75647;SDS011;64238;51.466;7.260;2022-11-20T14:35:21;7.60;;;4.13;;
75647;SDS011;64238;51.466;7.260;2022-11-20T14:37:51;7.10;;;4.28;;
75647;SDS011;64238;51.466;7.260;2022-11-20T14:40:28;7.72;;;4.30;;
75647;SDS011;64238;51.466;7.260;2022-11-20T14:42:55;7.43;;;3.92;;
75647;SDS011;64238;51.466;7.260;2022-11-20T14:45:21;7.28;;;4.40;;
75647;SDS011;64238;51.466;7.260;2022-11-20T14:47:47;7.15;;;3.72;;
75647;SDS011;64238;51.466;7.260;2022-11-20T14:50:16;7.38;;;4.15;;
75647;SDS011;64238;51.466;7.260;2022-11-20T14:52:58;7.60;;;4.15;;
75647;SDS011;64238;51.466;7.260;2022-11-20T14:55:32;8.32;;;4.35;;
75647;SDS011;64238;51.466;7.260;2022-11-20T14:58:04;7.93;;;4.53;;
75647;SDS011;64238;51.466;7.260;2022-11-20T15:00:32;8.18;;;4.50;;
75647;SDS011;64238;51.466;7.260;2022-11-20T15:02:59;7.32;;;4.15;;
75647;SDS011;64238;51.466;7.260;2022-11-20T15:05:26;8.45;;;4.07;;
75647;SDS011;64238;51.466;7.260;2022-11-20T15:08:10;7.60;;;4.20;;
75647;SDS011;64238;51.466;7.260;2022-11-20T15:10:38;8.13;;;3.97;;
75647;SDS011;64238;51.466;7.260;2022-11-20T15:13:13;7.43;;;4.03;;
75647;SDS011;64238;51.466;7.260;2022-11-20T15:15:44;7.57;;;4.07;;
75647;SDS011;64238;51.466;7.260;2022-11-20T15:18:13;7.55;;;4.07;;
75647;SDS011;64238;51.466;7.260;2022-11-20T15:20:44;7.75;;;4.05;;
75647;SDS011;64238;51.466;7.260;2022-11-20T15:23:11;8.43;;;4.20;;
75647;SDS011;64238;51.466;7.260;2022-11-20T15:25:38;7.30;;;4.22;;
75647;SDS011;64238;51.466;7.260;2022-11-20T15:28:07;7.63;;;4.20;;
75647;SDS011;64238;51.466;7.260;2022-11-20T15:30:46;7.18;;;3.97;;
75647;SDS011;64238;51.466;7.260;2022-11-20T15:33:13;7.55;;;4.18;;
75647;SDS011;64238;51.466;7.260;2022-11-20T15:35:39;7.07;;;3.90;;
75647;SDS011;64238;51.466;7.260;2022-11-20T15:38:05;7.80;;;4.40;;
75647;SDS011;64238;51.466;7.260;2022-11-20T15:40:31;7.13;;;3.90;;
75647;SDS011;64238;51.466;7.260;2022-11-20T15:42:57;7.18;;;4.15;;
75647;SDS011;64238;51.466;7.260;2022-11-20T15:48:29;7.55;;;4.18;;
75647;SDS011;64238;51.466;7.260;2022-11-20T15:51:01;8.20;;;4.43;;
75647;SDS011;64238;51.466;7.260;2022-11-20T15:53:34;7.72;;;4.22;;
75647;SDS011;64238;51.466;7.260;2022-11-20T15:56:00;6.82;;;3.92;;
75647;SDS011;64238;51.466;7.260;2022-11-20T15:58:26;7.93;;;4.35;;
75647;SDS011;64238;51.466;7.260;2022-11-20T16:00:52;7.13;;;3.90;;
75647;SDS011;64238;51.466;7.260;2022-11-20T16:03:18;6.65;;;3.88;;
75647;SDS011;64238;51.466;7.260;2022-11-20T16:05:44;8.57;;;4.40;;
75647;SDS011;64238;51.466;7.260;2022-11-20T16:08:10;7.47;;;3.85;;
75647;SDS011;64238;51.466;7.260;2022-11-20T16:10:36;7.82;;;4.05;;
75647;SDS011;64238;51.466;7.260;2022-11-20T16:13:02;7.07;;;3.80;;
75647;SDS011;64238;51.466;7.260;2022-11-20T16:15:50;6.82;;;3.95;;
75647;SDS011;64238;51.466;7.260;2022-11-20T16:18:20;7.32;;;4.10;;
75647;SDS011;64238;51.466;7.260;2022-11-20T16:20:47;7.38;;;3.95;;
75647;SDS011;64238;51.466;7.260;2022-11-20T16:23:14;8.15;;;4.05;;